sensor_id;sensor_type;location;lat;lon;timestamp;pressure;altitude;pressure_sealevel;temperature;humidity
7052;BME280;3567;52.444;13.556;2024-01-06T00:00:41;100118.81;;;0.82;100.00
7052;BME280;3567;52.444;13.556;2024-01-06T00:03:09;100122.28;;;0.82;100.00
7052;BME280;3567;52.444;13.556;2024-01-06T00:05:38;100118.00;;;0.81;100.00
7052;BME280;3567;52.444;13.556;2024-01-06T00:08:04;100116.53;;;0.78;100.00
7052;BME280;3567;52.444;13.556;2024-01-06T00:10:30;100127.59;;;0.74;100.00
7052;BME280;3567;52.444;13.556;2024-01-06T00:12:55;100122.34;;;0.74;100.00
7052;BME280;3567;52.444;13.556;2024-01-06T00:15:21;100119.41;;;0.69;100.00
7052;BME280;3567;52.444;13.556;2024-01-06T00:17:46;100120.63;;;0.66;100.00
7052;BME280;3567;52.444;13.556;2024-01-06T00:20:11;100119.97;;;0.64;100.00
7052;BME280;3567;52.444;13.556;2024-01-06T00:22:37;100121.63;;;0.65;100.00
7052;BME280;3567;52.444;13.556;2024-01-06T00:25:02;100119.78;;;0.66;100.00
7052;BME280;3567;52.444;13.556;2024-01-06T00:27:28;100114.88;;;0.63;100.00
7052;BME280;3567;52.444;13.556;2024-01-06T00:29:53;100121.63;;;0.65;100.00
7052;BME280;3567;52.444;13.556;2024-01-06T00:32:18;100110.88;;;0.67;100.00
7052;BME280;3567;52.444;13.556;2024-01-06T00:34:44;100119.59;;;0.67;100.00
7052;BME280;3567;52.444;13.556;2024-01-06T00:37:09;100119.59;;;0.67;100.00
7052;BME280;3567;52.444;13.556;2024-01-06T00:39:35;100124.69;;;0.69;100.00
7052;BME280;3567;52.444;13.556;2024-01-06T00:42:00;100121.09;;;0.70;100.00
7052;BME280;3567;52.444;13.556;2024-01-06T00:44:26;100131.78;;;0.68;100.00
7052;BME280;3567;52.444;13.556;2024-01-06T00:46:51;100135.22;;;0.69;100.00
7052;BME280;3567;52.444;13.556;2024-01-06T00:49:16;100138.88;;;0.68;100.00
7052;BME280;3567;52.444;13.556;2024-01-06T00:51:42;100137.25;;;0.67;100.00
7052;BME280;3567;52.444;13.556;2024-01-06T00:54:07;100131.97;;;0.67;100.00
7052;BME280;3567;52.444;13.556;2024-01-06T00:56:32;100131.16;;;0.66;100.00
7052;BME280;3567;52.444;13.556;2024-01-06T00:58:58;100130.34;;;0.66;100.00
7052;BME280;3567;52.444;13.556;2024-01-06T01:01:23;100131.34;;;0.65;100.00
7052;BME280;3567;52.444;13.556;2024-01-06T01:03:48;100146.16;;;0.66;100.00
7052;BME280;3567;52.444;13.556;2024-01-06T01:06:14;100146.50;;;0.63;100.00
7052;BME280;3567;52.444;13.556;2024-01-06T01:08:39;100163.94;;;0.64;100.00
7052;BME280;3567;52.444;13.556;2024-01-06T01:11:04;100164.78;;;0.64;100.00
7052;BME280;3567;52.444;13.556;2024-01-06T01:13:30;100164.78;;;0.64;100.00
7052;BME280;3567;52.444;13.556;2024-01-06T01:15:55;100160.34;;;0.65;100.00
7052;BME280;3567;52.444;13.556;2024-01-06T01:18:21;100162.78;;;0.66;100.00
7052;BME280;3567;52.444;13.556;2024-01-06T01:20:46;100168.41;;;0.63;100.00
7052;BME280;3567;52.444;13.556;2024-01-06T01:23:11;100170.22;;;0.63;100.00
7052;BME280;3567;52.444;13.556;2024-01-06T01:25:37;100178.94;;;0.63;100.00
7052;BME280;3567;52.444;13.556;2024-01-06T01:28:03;100160.69;;;0.62;100.00
7052;BME280;3567;52.444;13.556;2024-01-06T01:30:29;100161.50;;;0.62;100.00
7052;BME280;3567;52.444;13.556;2024-01-06T01:32:54;100155.41;;;0.62;100.00
7052;BME280;3567;52.444;13.556;2024-01-06T01:35:19;100157.69;;;0.65;100.00
7052;BME280;3567;52.444;13.556;2024-01-06T01:37:45;100164.59;;;0.66;100.00
7052;BME280;3567;52.444;13.556;2024-01-06T01:40:10;100159.53;;;0.64;100.00
7052;BME280;3567;52.444;13.556;2024-01-06T01:42:36;100165.94;;;0.62;100.00
7052;BME280;3567;52.444;13.556;2024-01-06T01:45:03;100166.31;;;0.59;100.00
7052;BME280;3567;52.444;13.556;2024-01-06T01:47:28;100161.88;;;0.59;100.00
7052;BME280;3567;52.444;13.556;2024-01-06T01:49:54;100172.84;;;0.63;100.00
7052;BME280;3567;52.444;13.556;2024-01-06T01:52:20;100167.59;;;0.63;100.00
7052;BME280;3567;52.444;13.556;2024-01-06T01:54:46;100167.94;;;0.60;100.00
7052;BME280;3567;52.444;13.556;2024-01-06T01:57:13;100167.28;;;0.58;100.00
7052;BME280;3567;52.444;13.556;2024-01-06T01:59:39;100174.38;;;0.57;100.00
7052;BME280;3567;52.444;13.556;2024-01-06T02:02:05;100171.94;;;0.56;100.00
7052;BME280;3567;52.444;13.556;2024-01-06T02:04:31;100174.38;;;0.57;100.00
7052;BME280;3567;52.444;13.556;2024-01-06T02:06:57;100178.03;;;0.56;100.00
7052;BME280;3567;52.444;13.556;2024-01-06T02:09:22;100171.94;;;0.56;100.00
7052;BME280;3567;52.444;13.556;2024-01-06T02:11:52;100176.00;;;0.58;100.00
7052;BME280;3567;52.444;13.556;2024-01-06T02:14:20;100179.50;;;0.59;100.00
7052;BME280;3567;52.444;13.556;2024-01-06T02:16:51;100181.47;;;0.57;100.00
7052;BME280;3567;52.444;13.556;2024-01-06T02:19:17;100185.75;;;0.58;100.00
7052;BME280;3567;52.444;13.556;2024-01-06T02:21:43;100191.00;;;0.58;100.00
7052;BME280;3567;52.444;13.556;2024-01-06T02:24:10;100185.59;;;0.59;100.00
7052;BME280;3567;52.444;13.556;2024-01-06T02:26:35;100191.00;;;0.58;100.00
7052;BME280;3567;52.444;13.556;2024-01-06T02:29:01;100196.28;;;0.58;100.00
7052;BME280;3567;52.444;13.556;2024-01-06T02:31:27;100187.75;;;0.56;100.00
7052;BME280;3567;52.444;13.556;2024-01-06T02:33:53;100194.84;;;0.55;100.00
7052;BME280;3567;52.444;13.556;2024-01-06T02:36:18;100195.66;;;0.56;100.00
7052;BME280;3567;52.444;13.556;2024-01-06T02:38:46;100187.13;;;0.54;100.00
7052;BME280;3567;52.444;13.556;2024-01-06T02:41:12;100195.84;;;0.54;100.00
7052;BME280;3567;52.444;13.556;2024-01-06T02:43:37;100198.28;;;0.56;100.00
7052;BME280;3567;52.444;13.556;2024-01-06T02:46:02;100200.94;;;0.56;100.00
7052;BME280;3567;52.444;13.556;2024-01-06T02:48:28;100200.28;;;0.54;100.00
7052;BME280;3567;52.444;13.556;2024-01-06T02:50:56;100203.91;;;0.52;100.00
7052;BME280;3567;52.444;13.556;2024-01-06T02:53:24;100201.25;;;0.52;100.00
7052;BME280;3567;52.444;13.556;2024-01-06T02:55:49;100204.72;;;0.53;100.00
7052;BME280;3567;52.444;13.556;2024-01-06T02:58:14;100203.25;;;0.50;100.00
7052;BME280;3567;52.444;13.556;2024-01-06T03:00:40;100204.91;;;0.51;100.00
7052;BME280;3567;52.444;13.556;2024-01-06T03:03:07;100207.34;;;0.53;100.00
7052;BME280;3567;52.444;13.556;2024-01-06T03:05:33;100209.16;;;0.52;100.00
7052;BME280;3567;52.444;13.556;2024-01-06T03:07:58;100210.84;;;0.54;100.00
7052;BME280;3567;52.444;13.556;2024-01-06T03:10:27;100223.34;;;0.51;100.00
7052;BME280;3567;52.444;13.556;2024-01-06T03:12:58;100223.00;;;0.55;100.00
7052;BME280;3567;52.444;13.556;2024-01-06T03:15:24;100213.47;;;0.54;100.00
7052;BME280;3567;52.444;13.556;2024-01-06T03:17:49;100224.00;;;0.54;100.00
7052;BME280;3567;52.444;13.556;2024-01-06T03:20:15;100225.66;;;0.55;100.00
7052;BME280;3567;52.444;13.556;2024-01-06T03:22:40;100218.75;;;0.54;100.00
7052;BME280;3567;52.444;13.556;2024-01-06T03:25:06;100221.53;;;0.52;100.00
7052;BME280;3567;52.444;13.556;2024-01-06T03:27:31;100218.25;;;0.50;100.00
7052;BME280;3567;52.444;13.556;2024-01-06T03:29:57;100228.63;;;0.51;100.00
7052;BME280;3567;52.444;13.556;2024-01-06T03:32:22;100226.66;;;0.54;100.00
7052;BME280;3567;52.444;13.556;2024-01-06T03:34:47;100224.97;;;0.52;100.00
7052;BME280;3567;52.444;13.556;2024-01-06T03:37:13;100232.72;;;0.54;100.00
7052;BME280;3567;52.444;13.556;2024-01-06T03:39:38;100237.19;;;0.54;100.00
7052;BME280;3567;52.444;13.556;2024-01-06T03:42:04;100235.88;;;0.49;100.00
7052;BME280;3567;52.444;13.556;2024-01-06T03:44:30;100246.06;;;0.52;100.00
7052;BME280;3567;52.444;13.556;2024-01-06T03:46:59;100246.25;;;0.51;100.00
7052;BME280;3567;52.444;13.556;2024-01-06T03:49:25;100253.00;;;0.54;100.00
7052;BME280;3567;52.444;13.556;2024-01-06T03:51:50;100246.06;;;0.52;100.00
7052;BME280;3567;52.444;13.556;2024-01-06T03:54:16;100251.34;;;0.52;100.00
7052;BME280;3567;52.444;13.556;2024-01-06T03:56:41;100249.69;;;0.51;100.00
7052;BME280;3567;52.444;13.556;2024-01-06T03:59:07;100266.00;;;0.55;100.00
7052;BME280;3567;52.444;13.556;2024-01-06T04:01:33;100250.19;;;0.55;100.00
7052;BME280;3567;52.444;13.556;2024-01-06T04:04:02;100260.72;;;0.55;100.00
7052;BME280;3567;52.444;13.556;2024-01-06T04:06:28;100258.28;;;0.54;100.00
7052;BME280;3567;52.444;13.556;2024-01-06T04:08:54;100256.59;;;0.52;100.00
7052;BME280;3567;52.444;13.556;2024-01-06T04:11:28;100263.88;;;0.50;100.00
7052;BME280;3567;52.444;13.556;2024-01-06T04:13:54;100263.53;;;0.54;100.00
7052;BME280;3567;52.444;13.556;2024-01-06T04:16:22;100265.50;;;0.51;100.00
7052;BME280;3567;52.444;13.556;2024-01-06T04:18:47;100263.06;;;0.50;100.00
7052;BME280;3567;52.444;13.556;2024-01-06T04:21:13;100263.06;;;0.50;100.00
7052;BME280;3567;52.444;13.556;2024-01-06T04:23:41;100263.88;;;0.50;100.00
7052;BME280;3567;52.444;13.556;2024-01-06T04:26:06;100270.78;;;0.51;100.00
7052;BME280;3567;52.444;13.556;2024-01-06T04:28:34;100266.19;;;0.54;100.00
7052;BME280;3567;52.444;13.556;2024-01-06T04:30:59;100266.19;;;0.54;100.00
7052;BME280;3567;52.444;13.556;2024-01-06T04:33:25;100269.78;;;0.52;100.00
7052;BME280;3567;52.444;13.556;2024-01-06T04:35:50;100271.25;;;0.55;100.00
7052;BME280;3567;52.444;13.556;2024-01-06T04:38:16;100274.91;;;0.54;100.00
7052;BME280;3567;52.444;13.556;2024-01-06T04:40:41;100286.25;;;0.55;100.00
7052;BME280;3567;52.444;13.556;2024-01-06T04:43:12;100294.16;;;0.55;100.00
7052;BME280;3567;52.444;13.556;2024-01-06T04:45:37;100291.53;;;0.55;100.00
7052;BME280;3567;52.444;13.556;2024-01-06T04:48:03;100291.88;;;0.51;100.00
7052;BME280;3567;52.444;13.556;2024-01-06T04:50:29;100293.69;;;0.51;100.00
7052;BME280;3567;52.444;13.556;2024-01-06T04:52:54;100295.50;;;0.50;100.00
7052;BME280;3567;52.444;13.556;2024-01-06T04:55:20;100291.22;;;0.49;100.00
7052;BME280;3567;52.444;13.556;2024-01-06T04:57:45;100296.50;;;0.49;100.00
7052;BME280;3567;52.444;13.556;2024-01-06T05:00:11;100294.00;;;0.48;100.00
7052;BME280;3567;52.444;13.556;2024-01-06T05:02:39;100294.00;;;0.48;100.00
7052;BME280;3567;52.444;13.556;2024-01-06T05:05:07;100299.13;;;0.49;100.00
7052;BME280;3567;52.444;13.556;2024-01-06T05:07:32;100306.03;;;0.50;100.00
7052;BME280;3567;52.444;13.556;2024-01-06T05:09:57;100306.03;;;0.50;100.00
7052;BME280;3567;52.444;13.556;2024-01-06T05:12:23;100306.53;;;0.54;100.00
7052;BME280;3567;52.444;13.556;2024-01-06T05:14:48;100306.53;;;0.54;100.00
7052;BME280;3567;52.444;13.556;2024-01-06T05:17:14;100299.59;;;0.53;100.00
7052;BME280;3567;52.444;13.556;2024-01-06T05:19:39;100309.50;;;0.51;100.00
7052;BME280;3567;52.444;13.556;2024-01-06T05:22:10;100304.84;;;0.53;100.00
7052;BME280;3567;52.444;13.556;2024-01-06T05:24:37;100312.94;;;0.51;100.00
7052;BME280;3567;52.444;13.556;2024-01-06T05:27:06;100317.88;;;0.55;100.00
7052;BME280;3567;52.444;13.556;2024-01-06T05:29:34;100322.66;;;0.51;100.00
7052;BME280;3567;52.444;13.556;2024-01-06T05:31:59;100329.44;;;0.45;100.00
7052;BME280;3567;52.444;13.556;2024-01-06T05:34:24;100329.78;;;0.42;100.00
7052;BME280;3567;52.444;13.556;2024-01-06T05:36:50;100328.16;;;0.41;100.00
7052;BME280;3567;52.444;13.556;2024-01-06T05:39:16;100326.50;;;0.40;100.00
7052;BME280;3567;52.444;13.556;2024-01-06T05:41:42;100333.41;;;0.41;100.00
7052;BME280;3567;52.444;13.556;2024-01-06T05:44:07;100335.06;;;0.42;100.00
7052;BME280;3567;52.444;13.556;2024-01-06T05:46:33;100333.41;;;0.41;100.00
7052;BME280;3567;52.444;13.556;2024-01-06T05:49:02;100342.31;;;0.40;100.00
7052;BME280;3567;52.444;13.556;2024-01-06T05:51:28;100331.16;;;0.38;100.00
7052;BME280;3567;52.444;13.556;2024-01-06T05:53:53;100347.09;;;0.37;100.00
7052;BME280;3567;52.444;13.556;2024-01-06T05:56:26;100349.91;;;0.35;100.00
7052;BME280;3567;52.444;13.556;2024-01-06T05:58:52;100353.56;;;0.34;100.00
7052;BME280;3567;52.444;13.556;2024-01-06T06:01:19;100350.59;;;0.29;100.00
7052;BME280;3567;52.444;13.556;2024-01-06T06:03:47;100359.97;;;0.32;100.00
7052;BME280;3567;52.444;13.556;2024-01-06T06:06:13;100350.28;;;0.32;100.00
7052;BME280;3567;52.444;13.556;2024-01-06T06:08:42;100357.69;;;0.29;100.00
7052;BME280;3567;52.444;13.556;2024-01-06T06:11:08;100366.91;;;0.24;100.00
7052;BME280;3567;52.444;13.556;2024-01-06T06:13:40;100379.09;;;0.25;100.00
7052;BME280;3567;52.444;13.556;2024-01-06T06:16:06;100379.28;;;0.24;100.00
7052;BME280;3567;52.444;13.556;2024-01-06T06:18:32;100373.38;;;0.22;100.00
7052;BME280;3567;52.444;13.556;2024-01-06T06:20:58;100383.09;;;0.21;100.00
7052;BME280;3567;52.444;13.556;2024-01-06T06:23:24;100385.72;;;0.21;100.00
7052;BME280;3567;52.444;13.556;2024-01-06T06:25:52;100391.81;;;0.22;100.00
7052;BME280;3567;52.444;13.556;2024-01-06T06:28:17;100392.13;;;0.19;100.00
7052;BME280;3567;52.444;13.556;2024-01-06T06:30:43;100392.94;;;0.19;100.00
7052;BME280;3567;52.444;13.556;2024-01-06T06:33:10;100396.41;;;0.20;100.00
7052;BME280;3567;52.444;13.556;2024-01-06T06:35:36;100401.03;;;0.18;100.00
7052;BME280;3567;52.444;13.556;2024-01-06T06:38:01;100399.41;;;0.17;100.00
7052;BME280;3567;52.444;13.556;2024-01-06T06:40:30;100404.66;;;0.17;100.00
7052;BME280;3567;52.444;13.556;2024-01-06T06:42:55;100410.56;;;0.19;100.00
7052;BME280;3567;52.444;13.556;2024-01-06T06:45:21;100423.75;;;0.19;100.00
7052;BME280;3567;52.444;13.556;2024-01-06T06:47:49;100424.06;;;0.16;100.00
7052;BME280;3567;52.444;13.556;2024-01-06T06:50:18;100426.69;;;0.16;100.00
7052;BME280;3567;52.444;13.556;2024-01-06T06:52:44;100435.44;;;0.16;100.00
7052;BME280;3567;52.444;13.556;2024-01-06T06:55:12;100432.47;;;0.19;100.00
7052;BME280;3567;52.444;13.556;2024-01-06T06:57:38;100444.81;;;0.19;100.00
7052;BME280;3567;52.444;13.556;2024-01-06T07:00:04;100451.25;;;0.16;100.00
7052;BME280;3567;52.444;13.556;2024-01-06T07:02:30;100453.22;;;0.14;100.00
7052;BME280;3567;52.444;13.556;2024-01-06T07:04:55;100461.94;;;0.15;100.00
7052;BME280;3567;52.444;13.556;2024-01-06T07:07:21;100473.13;;;0.17;100.00
7052;BME280;3567;52.444;13.556;2024-01-06T07:09:46;100476.41;;;0.19;100.00
7052;BME280;3567;52.444;13.556;2024-01-06T07:12:11;100471.47;;;0.16;100.00
7052;BME280;3567;52.444;13.556;2024-01-06T07:14:39;100477.72;;;0.15;100.00
7052;BME280;3567;52.444;13.556;2024-01-06T07:17:04;100474.78;;;0.10;100.00
7052;BME280;3567;52.444;13.556;2024-01-06T07:19:33;100483.69;;;0.09;100.00
7052;BME280;3567;52.444;13.556;2024-01-06T07:21:58;100494.22;;;0.09;100.00
7052;BME280;3567;52.444;13.556;2024-01-06T07:24:26;100493.72;;;0.13;100.00
7052;BME280;3567;52.444;13.556;2024-01-06T07:26:52;100499.47;;;0.17;100.00
7052;BME280;3567;52.444;13.556;2024-01-06T07:29:18;100508.69;;;0.13;100.00
7052;BME280;3567;52.444;13.556;2024-01-06T07:31:44;100511.81;;;0.08;100.00
7052;BME280;3567;52.444;13.556;2024-01-06T07:34:12;100510.00;;;0.09;100.00
7052;BME280;3567;52.444;13.556;2024-01-06T07:36:38;100514.28;;;0.10;100.00
7052;BME280;3567;52.444;13.556;2024-01-06T07:39:04;100517.91;;;0.09;100.00
7052;BME280;3567;52.444;13.556;2024-01-06T07:41:31;100514.63;;;0.07;100.00
7052;BME280;3567;52.444;13.556;2024-01-06T07:43:57;100522.69;;;0.05;100.00
7052;BME280;3567;52.444;13.556;2024-01-06T07:46:23;100531.56;;;0.04;100.00
7052;BME280;3567;52.444;13.556;2024-01-06T07:48:48;100524.03;;;0.01;100.00
7052;BME280;3567;52.444;13.556;2024-01-06T07:51:14;100531.09;;;0.01;100.00
7052;BME280;3567;52.444;13.556;2024-01-06T07:53:39;100535.53;;;0.00;100.00
7052;BME280;3567;52.444;13.556;2024-01-06T07:56:05;100543.94;;;-0.05;100.00
7052;BME280;3567;52.444;13.556;2024-01-06T07:58:31;100537.34;;;-0.09;100.00
7052;BME280;3567;52.444;13.556;2024-01-06T08:00:58;100544.91;;;-0.14;100.00
7052;BME280;3567;52.444;13.556;2024-01-06T08:03:26;100555.09;;;-0.11;100.00
7052;BME280;3567;52.444;13.556;2024-01-06T08:05:57;100560.69;;;-0.14;100.00
7052;BME280;3567;52.444;13.556;2024-01-06T08:08:23;100561.84;;;-0.16;100.00
7052;BME280;3567;52.444;13.556;2024-01-06T08:10:51;100571.41;;;-0.15;100.00
7052;BME280;3567;52.444;13.556;2024-01-06T08:13:19;100575.00;;;-0.16;100.00
7052;BME280;3567;52.444;13.556;2024-01-06T08:15:47;100578.78;;;-0.19;100.00
7052;BME280;3567;52.444;13.556;2024-01-06T08:18:13;100576.47;;;-0.22;100.00
7052;BME280;3567;52.444;13.556;2024-01-06T08:20:38;100577.47;;;-0.23;100.00
7052;BME280;3567;52.444;13.556;2024-01-06T08:23:04;100591.97;;;-0.19;100.00
7052;BME280;3567;52.444;13.556;2024-01-06T08:25:29;100577.16;;;-0.20;100.00
7052;BME280;3567;52.444;13.556;2024-01-06T08:27:55;100582.41;;;-0.20;100.00
7052;BME280;3567;52.444;13.556;2024-01-06T08:30:23;100578.75;;;-0.27;100.00
7052;BME280;3567;52.444;13.556;2024-01-06T08:32:51;100578.13;;;-0.29;100.00
7052;BME280;3567;52.444;13.556;2024-01-06T08:35:18;100594.41;;;-0.25;100.00
7052;BME280;3567;52.444;13.556;2024-01-06T08:37:47;100589.28;;;-0.27;100.00
7052;BME280;3567;52.444;13.556;2024-01-06T08:40:13;100595.56;;;-0.28;100.00
7052;BME280;3567;52.444;13.556;2024-01-06T08:42:38;100593.59;;;-0.26;100.00
7052;BME280;3567;52.444;13.556;2024-01-06T08:45:04;100589.16;;;-0.25;100.00
7052;BME280;3567;52.444;13.556;2024-01-06T08:47:30;100602.47;;;-0.27;100.00
7052;BME280;3567;52.444;13.556;2024-01-06T08:49:55;100610.22;;;-0.25;100.00
7052;BME280;3567;52.444;13.556;2024-01-06T08:52:21;100611.34;;;-0.28;100.00
7052;BME280;3567;52.444;13.556;2024-01-06T08:54:46;100613.97;;;-0.28;100.00
7052;BME280;3567;52.444;13.556;2024-01-06T08:57:12;100612.00;;;-0.34;100.00
7052;BME280;3567;52.444;13.556;2024-01-06T08:59:37;100619.88;;;-0.34;100.00
7052;BME280;3567;52.444;13.556;2024-01-06T09:02:03;100623.69;;;-0.37;100.00
7052;BME280;3567;52.444;13.556;2024-01-06T09:04:28;100631.72;;;-0.38;100.00
7052;BME280;3567;52.444;13.556;2024-01-06T09:06:54;100642.91;;;-0.36;100.00
7052;BME280;3567;52.444;13.556;2024-01-06T09:09:19;100641.94;;;-0.35;100.00
7052;BME280;3567;52.444;13.556;2024-01-06T09:11:45;100642.44;;;-0.32;100.00
7052;BME280;3567;52.444;13.556;2024-01-06T09:14:11;100651.16;;;-0.31;100.00
7052;BME280;3567;52.444;13.556;2024-01-06T09:16:38;100657.06;;;-0.37;100.00
7052;BME280;3567;52.444;13.556;2024-01-06T09:19:06;100656.22;;;-0.38;100.00
7052;BME280;3567;52.444;13.556;2024-01-06T09:21:31;100668.56;;;-0.38;100.00
7052;BME280;3567;52.444;13.556;2024-01-06T09:23:57;100670.53;;;-0.40;100.00
7052;BME280;3567;52.444;13.556;2024-01-06T09:26:36;100665.09;;;-0.47;100.00
7052;BME280;3567;52.444;13.556;2024-01-06T09:29:02;100673.13;;;-0.48;100.00
7052;BME280;3567;52.444;13.556;2024-01-06T09:31:29;100676.72;;;-0.49;100.00
7052;BME280;3567;52.444;13.556;2024-01-06T09:33:54;100679.38;;;-0.49;100.00
7052;BME280;3567;52.444;13.556;2024-01-06T09:36:20;100678.38;;;-0.48;100.00
7052;BME280;3567;52.444;13.556;2024-01-06T09:38:45;100685.09;;;-0.54;100.00
7052;BME280;3567;52.444;13.556;2024-01-06T09:41:11;100682.34;;;-0.52;100.00
7052;BME280;3567;52.444;13.556;2024-01-06T09:43:36;100686.25;;;-0.57;100.00
7052;BME280;3567;52.444;13.556;2024-01-06T09:46:10;100686.56;;;-0.60;100.00
7052;BME280;3567;52.444;13.556;2024-01-06T09:48:40;100685.38;;;-0.65;100.00
7052;BME280;3567;52.444;13.556;2024-01-06T09:51:11;100692.16;;;-0.63;100.00
7052;BME280;3567;52.444;13.556;2024-01-06T09:53:43;100696.25;;;-0.60;100.00
7052;BME280;3567;52.444;13.556;2024-01-06T09:56:14;100698.72;;;-0.59;100.00
7052;BME280;3567;52.444;13.556;2024-01-06T09:58:39;100694.31;;;-0.58;100.00
7052;BME280;3567;52.444;13.556;2024-01-06T10:01:06;100693.81;;;-0.54;100.00
7052;BME280;3567;52.444;13.556;2024-01-06T10:03:32;100698.41;;;-0.56;100.00
7052;BME280;3567;52.444;13.556;2024-01-06T10:05:59;100707.94;;;-0.55;100.00
7052;BME280;3567;52.444;13.556;2024-01-06T10:08:29;100723.09;;;-0.57;100.00
7052;BME280;3567;52.444;13.556;2024-01-06T10:10:55;100717.81;;;-0.57;100.00
7052;BME280;3567;52.444;13.556;2024-01-06T10:13:20;100723.59;;;-0.53;100.00
7052;BME280;3567;52.444;13.556;2024-01-06T10:15:46;100724.09;;;-0.49;100.00
7052;BME280;3567;52.444;13.556;2024-01-06T10:18:12;100721.00;;;-0.45;100.00
7052;BME280;3567;52.444;13.556;2024-01-06T10:20:38;100723.47;;;-0.43;100.00
7052;BME280;3567;52.444;13.556;2024-01-06T10:23:06;100711.63;;;-0.47;100.00
7052;BME280;3567;52.444;13.556;2024-01-06T10:25:32;100716.19;;;-0.49;100.00
7052;BME280;3567;52.444;13.556;2024-01-06T10:28:00;100716.38;;;-0.51;100.00
7052;BME280;3567;52.444;13.556;2024-01-06T10:30:26;100724.09;;;-0.49;100.00
7052;BME280;3567;52.444;13.556;2024-01-06T10:32:52;100719.81;;;-0.50;100.00
7052;BME280;3567;52.444;13.556;2024-01-06T10:35:18;100726.06;;;-0.51;100.00
7052;BME280;3567;52.444;13.556;2024-01-06T10:37:44;100727.88;;;-0.52;100.00
7052;BME280;3567;52.444;13.556;2024-01-06T10:40:13;100727.72;;;-0.50;100.00
7052;BME280;3567;52.444;13.556;2024-01-06T10:42:41;100733.28;;;-0.54;100.00
7052;BME280;3567;52.444;13.556;2024-01-06T10:45:11;100724.56;;;-0.54;100.00
7052;BME280;3567;52.444;13.556;2024-01-06T10:47:39;100730.66;;;-0.54;100.00
7052;BME280;3567;52.444;13.556;2024-01-06T10:50:05;100731.34;;;-0.51;100.00
7052;BME280;3567;52.444;13.556;2024-01-06T10:52:31;100733.97;;;-0.51;100.00
7052;BME280;3567;52.444;13.556;2024-01-06T10:54:58;100727.19;;;-0.54;100.00
7052;BME280;3567;52.444;13.556;2024-01-06T10:57:24;100730.00;;;-0.56;100.00
7052;BME280;3567;52.444;13.556;2024-01-06T10:59:51;100722.75;;;-0.54;100.00
7052;BME280;3567;52.444;13.556;2024-01-06T11:02:16;100728.88;;;-0.53;100.00
7052;BME280;3567;52.444;13.556;2024-01-06T11:04:46;100732.31;;;-0.52;100.00
7052;BME280;3567;52.444;13.556;2024-01-06T11:07:14;100729.81;;;-0.54;100.00
7052;BME280;3567;52.444;13.556;2024-01-06T11:12:31;100745.78;;;-0.56;100.00
7052;BME280;3567;52.444;13.556;2024-01-06T11:14:57;100751.03;;;-0.56;100.00
7052;BME280;3567;52.444;13.556;2024-01-06T11:17:51;100740.00;;;-0.59;100.00
7052;BME280;3567;52.444;13.556;2024-01-06T11:20:19;100745.06;;;-0.66;100.00
7052;BME280;3567;52.444;13.556;2024-01-06T11:22:46;100746.69;;;-0.65;100.00
7052;BME280;3567;52.444;13.556;2024-01-06T11:25:15;100740.47;;;-0.64;100.00
7052;BME280;3567;52.444;13.556;2024-01-06T11:27:42;100744.06;;;-0.65;100.00
7052;BME280;3567;52.444;13.556;2024-01-06T11:30:19;100737.00;;;-0.64;100.00
7052;BME280;3567;52.444;13.556;2024-01-06T11:32:45;100741.13;;;-0.62;100.00
7052;BME280;3567;52.444;13.556;2024-01-06T11:35:13;100740.97;;;-0.60;100.00
7052;BME280;3567;52.444;13.556;2024-01-06T11:42:42;100744.75;;;-0.63;100.00
7052;BME280;3567;52.444;13.556;2024-01-06T11:45:08;100732.59;;;-0.64;100.00
7052;BME280;3567;52.444;13.556;2024-01-06T11:47:34;100737.69;;;-0.62;100.00
7052;BME280;3567;52.444;13.556;2024-01-06T11:50:01;100739.34;;;-0.61;100.00
7052;BME280;3567;52.444;13.556;2024-01-06T11:52:30;100734.25;;;-0.63;100.00
7052;BME280;3567;52.444;13.556;2024-01-06T11:54:56;100730.63;;;-0.62;100.00
7052;BME280;3567;52.444;13.556;2024-01-06T11:57:22;100735.06;;;-0.62;100.00
7052;BME280;3567;52.444;13.556;2024-01-06T11:59:48;100739.50;;;-0.63;100.00
7052;BME280;3567;52.444;13.556;2024-01-06T12:02:17;100741.13;;;-0.62;100.00
7052;BME280;3567;52.444;13.556;2024-01-06T12:04:49;100727.34;;;-0.64;100.00
7052;BME280;3567;52.444;13.556;2024-01-06T12:07:16;100737.69;;;-0.62;100.00
7052;BME280;3567;52.444;13.556;2024-01-06T12:09:42;100735.88;;;-0.62;100.00
7052;BME280;3567;52.444;13.556;2024-01-06T12:12:07;100743.44;;;-0.59;100.00
7052;BME280;3567;52.444;13.556;2024-01-06T12:14:34;100750.03;;;-0.63;100.00
7052;BME280;3567;52.444;13.556;2024-01-06T12:17:00;100744.59;;;-0.61;100.00
7052;BME280;3567;52.444;13.556;2024-01-06T12:19:32;100751.81;;;-0.63;100.00
7052;BME280;3567;52.444;13.556;2024-01-06T12:21:58;100748.72;;;-0.59;100.00
7052;BME280;3567;52.444;13.556;2024-01-06T12:24:24;100755.66;;;-0.58;100.00
7052;BME280;3567;52.444;13.556;2024-01-06T12:26:52;100744.13;;;-0.57;100.00
7052;BME280;3567;52.444;13.556;2024-01-06T12:29:17;100757.94;;;-0.55;100.00
7052;BME280;3567;52.444;13.556;2024-01-06T12:31:43;100759.09;;;-0.57;100.00
7052;BME280;3567;52.444;13.556;2024-01-06T12:34:09;100758.28;;;-0.58;100.00
7052;BME280;3567;52.444;13.556;2024-01-06T12:36:39;100765.47;;;-0.60;100.00
7052;BME280;3567;52.444;13.556;2024-01-06T12:39:10;100765.94;;;-0.64;100.00
7052;BME280;3567;52.444;13.556;2024-01-06T12:41:39;100767.75;;;-0.65;100.00
7052;BME280;3567;52.444;13.556;2024-01-06T12:44:04;100778.28;;;-0.65;100.00
7052;BME280;3567;52.444;13.556;2024-01-06T12:46:30;100775.81;;;-0.66;100.00
7052;BME280;3567;52.444;13.556;2024-01-06T12:48:55;100777.31;;;-0.64;100.00
7052;BME280;3567;52.444;13.556;2024-01-06T12:51:20;100776.47;;;-0.64;100.00
7052;BME280;3567;52.444;13.556;2024-01-06T12:53:46;100776.16;;;-0.61;100.00
7052;BME280;3567;52.444;13.556;2024-01-06T12:56:11;100781.59;;;-0.63;100.00
7052;BME280;3567;52.444;13.556;2024-01-06T12:58:42;100784.34;;;-0.64;100.00